Pagina principale
METAR-TAF:

METAR-TAF

Aeroporti :

Peer, Belgio

latitudine: 51-10N, longitudine: 005-28E, altezza: 55 m

Osservazione

Il bollettino è stato emesso 4 ore e 9 minuti fa, alle 20:55 UTC
Vento 7 kt da est/nord-est
Temperature 16°C
Umidità 45%
Pressione 1022 hPa
Visibilità 10 km o più

METAR: EBBL 302055Z AUTO 06007KT 9999 NCD 16/04 Q1022 BLU

Ora: 03:04 (01:04 UTC)

Previsione

Il bollettino è stato emesso 9 ore e 23 minuti fa, alle 15:41 UTC
Previsione valida dal 29 alle 19 UTC al 30 alle 07 UTC
Vento 7 kt da est
Visibilità 10 km o più
Poco nuvoloso ad un'altezza di 30000 ft
Evoluzione graduale
dal 29 alle 20 UTC al 29 alle 22 UTC
Cielo sereno

TAF: EBBL 291541Z 2919/3007 08007KT 9999 FEW300 BECMG 2920/2922 SKC

Osservazioni e previsioni meteorologiche di più di 4000 aeroporti (messaggi METAR e TAF).

Le stazioni disponibili sono rappresentate dai dischi gialli e rossi sulla carta.

Puntare il mouse per vedere il nome della stazione.

Clicca sopra per visualizzare le osservazioni e previsioni meteorologiche.

Per cambiare la mappa : fare clic sui pulsanti verdi con una croce nera per ingrandire, il pulsante verde con un trattino per diminuire, o sulla freccia verde per le mappe adiacenti.


METAR-TAF: